Flight Track Log - Related Links

Times and Time Zones

All times are in EDT time to prevent confusion due to time zone crossing. See the RPA3228 flight status page for this flight to view local times or setup timezone preferences in your user account.

Time Position Orientation Groundspeed Altitude Reporting Facility
EDT Latitude Longitude Course Direction KTS MPH feet Rate Location/Type
Sun 10:29:00 AM 38.9888 -76.6337 67° East  Level FlightAware Approximate
Sun 10:30:00 AM 39.0402 -76.4994 63° Northeast  Level FlightAware Approximate
Sun 10:31:00 AM 39.0951 -76.3669 61° Northeast  Level FlightAware Approximate
Sun 10:32:00 AM 39.1353 -76.2314 38° Northeast  Level FlightAware Approximate
Sun 10:33:00 AM 39.1626 -76.0913 83° East  Level FlightAware Approximate
Sun 10:34:00 AM 39.1781 -75.9424 81° East  Level FlightAware Approximate
Sun 10:35:00 AM 39.2223 -75.8121 47° Northeast  Level FlightAware Approximate
Sun 10:36:00 AM 39.3071 -75.7096 38° Northeast  Level FlightAware Approximate
Sun 10:37:00 AM 39.3920 -75.6078 52° Northeast  Level FlightAware Approximate
Sun 10:38:00 AM 39.4709 -75.4970 45° Northeast  Level FlightAware Approximate
Sun 10:39:00 AM 39.5546 -75.3918 42° Northeast  Level FlightAware Approximate
Sun 10:40:00 AM 39.6405 -75.2895 48° Northeast  Level FlightAware Approximate
Sun 10:41:00 AM 39.7179 -75.1762 48° Northeast  Level FlightAware Approximate
Sun 10:42:00 AM 39.7952 -75.0627 48° Northeast  Level FlightAware Approximate
Sun 10:43:00 AM 39.8724 -74.9488 49° Northeast  Level FlightAware Approximate
Sun 10:44:00 AM 39.9520 -74.8379 45° Northeast  Level FlightAware Approximate
Sun 10:45:00 AM 40.0333 -74.7301 90° East  Level FlightAware Approximate
Sun 10:46:00 AM 40.1060 -74.6152 47° Northeast  Level FlightAware Approximate
Sun 10:47:00 AM 40.1855 -74.5037 47° Northeast  Level FlightAware Approximate
Sun 10:48:00 AM 40.2746 -74.4056 38° Northeast  Level FlightAware Approximate
Sun 10:49:00 AM 40.3658 -74.3102 39° Northeast  Level FlightAware Approximate
Sun 10:50:00 AM 40.4569 -74.2147 39° Northeast  Level FlightAware Approximate
Sun 10:51:00 AM 40.5480 -74.1188 39° Northeast  Level FlightAware Approximate
Sun 10:52:00 AM 40.5779 -73.9712 76° East  Level FlightAware Approximate
Sun 10:53:00 AM 40.6062 -73.8222 76° East  Level FlightAware Approximate
Sun 10:54:00 AM 40.6898 -73.7667 North  Level FlightAware Approximate
Sun 10:55:00 AM 40.8064 -73.7667 North  Level FlightAware Approximate
Sun 10:56:00 AM 40.9229 -73.7733 356° North  Level FlightAware Approximate
Sun 10:57:00 AM 41.0392 -73.7833 North  Level FlightAware Approximate
Sun 10:58:00 AM 41.1558 -73.7836 358° North  Level FlightAware Approximate
Sun 10:59:00 AM 41.2724 -73.7891 358° North  Level FlightAware Approximate
Sun 11:00:00 AM 41.3889 -73.7947 358° North  Level FlightAware Approximate
Sun 11:01:00 AM 41.5054 -73.8006 355° North  Level FlightAware Approximate
Sun 11:02:00 AM 41.6216 -73.8135 355° North  Level FlightAware Approximate
Sun 11:03:00 AM 41.7381 -73.8127 North  Level FlightAware Approximate
Sun 11:04:00 AM 41.8546 -73.8074 North  Level FlightAware Approximate
Sun 11:05:00 AM 41.9712 -73.8021 North  Level FlightAware Approximate
Sun 11:06:00 AM 42.0878 -73.8000 North  Level FlightAware Approximate
Sun 11:07:00 AM 42.2044 -73.8000 North  Level FlightAware Approximate
Sun 11:08:00 AM 42.3210 -73.8000 North  Level FlightAware Approximate
Sun 11:09:00 AM 42.4376 -73.8000 North  Level FlightAware Approximate
Sun 11:10:00 AM 42.5542 -73.8000 North  Level FlightAware Approximate
Sun 11:11:00 AM 42.6708 -73.8000 North  Level FlightAware Approximate
Sun 11:12:00 AM 42.7852 -73.7793 16° North  Level FlightAware Approximate
Sun 11:13:00 AM 42.8814 -73.7408 16° North  Level FlightAware Approximate
Sun 11:14:00 AM 42.9769 -73.7032 20° North  Level FlightAware Approximate
Sun 11:15:00 AM 43.0740 -73.6699 14° North  Level FlightAware Approximate
Sun 11:16:00 AM 43.1713 -73.6374 14° North  Level FlightAware Approximate
Sun 11:17:00 AM 43.2687 -73.6049 14° North  Level FlightAware Approximate
Sun 11:18:00 AM 43.3636 -73.5631 26° Northeast  Level FlightAware Approximate
Sun 11:19:00 AM 43.4590 -73.5222 15° North  Level FlightAware Approximate
Sun 11:20:00 AM 43.5558 -73.4866 15° North  Level FlightAware Approximate
Sun 11:21:00 AM 43.6526 -73.4509 15° North  Level FlightAware Approximate
Sun 11:22:00 AM 43.7491 -73.4137 16° North  Level FlightAware Approximate
Sun 11:23:00 AM 43.8453 -73.3752 16° North  Level FlightAware Approximate
Sun 11:24:00 AM 43.9426 -73.3452 15° North  Level FlightAware Approximate
Sun 11:25:00 AM 44.0396 -73.3099 15° North  Level FlightAware Approximate
Sun 11:26:00 AM 44.1360 -73.2723 16° North  Level FlightAware Approximate
Sun 11:27:00 AM 44.2323 -73.2337 16° North  Level FlightAware Approximate
Sun 11:28:00 AM 44.3285 -73.1953 16° North  Level FlightAware Approximate
Sun 11:29:00 AM 44.4254 -73.1603 10° North  Level FlightAware Approximate
Sun 11:30:00 AM 44.4667 -73.1500 10° North  Level FlightAware Approximate
Sun 11:31:00 AM 44.4719 -73.1533 10° North  Level Estimated

Login

Don't have an account? Register now (free) for customized features, flight alerts, and more!